createdAt,value
2018-10-21T00:00:44.754Z,1025.60
2018-10-21T00:01:44.746Z,1025.62
2018-10-21T00:02:44.739Z,1025.63
2018-10-21T00:03:44.729Z,1025.67
2018-10-21T00:04:44.715Z,1025.62
2018-10-21T00:05:44.707Z,1025.58
2018-10-21T00:06:44.703Z,1025.64
2018-10-21T00:07:44.698Z,1025.61
2018-10-21T00:08:44.679Z,1025.60
2018-10-21T00:09:44.672Z,1025.66
2018-10-21T00:10:44.663Z,1025.62
2018-10-21T00:11:44.652Z,1025.60
2018-10-21T00:12:44.652Z,1025.64
2018-10-21T00:13:44.639Z,1025.60
2018-10-21T00:14:44.632Z,1025.60
2018-10-21T00:15:44.741Z,1025.60
2018-10-21T00:16:44.608Z,1025.61
2018-10-21T00:17:44.603Z,1025.65
2018-10-21T00:18:44.590Z,1025.58
2018-10-21T00:19:44.582Z,1025.58
2018-10-21T00:20:44.577Z,1025.62
2018-10-21T00:21:44.569Z,1025.57
2018-10-21T00:22:44.555Z,1025.58
2018-10-21T00:23:44.546Z,1025.51
2018-10-21T00:24:44.544Z,1025.53
2018-10-21T00:25:44.532Z,1025.52
2018-10-21T00:26:44.523Z,1025.48
2018-10-21T00:27:44.513Z,1025.49
2018-10-21T00:28:44.500Z,1025.48
2018-10-21T00:29:44.491Z,1025.44
2018-10-21T00:30:44.483Z,1025.44
2018-10-21T00:31:44.473Z,1025.44
2018-10-21T00:32:44.468Z,1025.53
2018-10-21T00:33:44.464Z,1025.48
2018-10-21T00:34:44.456Z,1025.51
2018-10-21T00:35:44.445Z,1025.50
2018-10-21T00:36:44.429Z,1025.49
2018-10-21T00:37:44.422Z,1025.49
2018-10-21T00:38:44.420Z,1025.52
2018-10-21T00:39:44.410Z,1025.52
2018-10-21T00:40:44.392Z,1025.50
2018-10-21T00:41:44.384Z,1025.47
2018-10-21T00:42:44.376Z,1025.52
2018-10-21T00:43:44.365Z,1025.48
2018-10-21T00:44:44.360Z,1025.55
2018-10-21T00:45:44.352Z,1025.52
2018-10-21T00:46:44.345Z,1025.51
2018-10-21T00:47:44.334Z,1025.59
2018-10-21T00:48:44.321Z,1025.59
2018-10-21T00:49:44.313Z,1025.62
2018-10-21T00:50:44.303Z,1025.53
2018-10-21T00:51:44.297Z,1025.52
2018-10-21T00:52:44.293Z,1025.53
2018-10-21T00:53:44.280Z,1025.56
2018-10-21T00:54:44.266Z,1025.51
2018-10-21T00:55:44.256Z,1025.51
2018-10-21T00:56:44.253Z,1025.49
2018-10-21T00:57:44.244Z,1025.51
2018-10-21T00:58:44.234Z,1025.41
2018-10-21T00:59:44.225Z,1025.43
2018-10-21T01:00:44.211Z,1025.41
2018-10-21T01:01:44.202Z,1025.39
2018-10-21T01:02:44.193Z,1025.43
2018-10-21T01:03:44.185Z,1025.34
2018-10-21T01:04:44.180Z,1025.34
2018-10-21T01:05:44.171Z,1025.39
2018-10-21T01:06:44.164Z,1025.39
2018-10-21T01:07:44.153Z,1025.33
2018-10-21T01:08:44.139Z,1025.38
2018-10-21T01:09:44.131Z,1025.37
2018-10-21T01:10:44.127Z,1025.41
2018-10-21T01:11:44.117Z,1025.41
2018-10-21T01:12:44.103Z,1025.44
2018-10-21T01:13:44.095Z,1025.50
2018-10-21T01:14:44.085Z,1025.48
2018-10-21T01:15:44.078Z,1025.47
2018-10-21T01:16:44.073Z,1025.45
2018-10-21T01:17:44.062Z,1025.43
2018-10-21T01:18:44.054Z,1025.48
2018-10-21T01:19:44.043Z,1025.51
2018-10-21T01:20:44.029Z,1025.52
2018-10-21T01:21:44.021Z,1025.53
2018-10-21T01:22:44.013Z,1025.52
2018-10-21T01:23:44.004Z,1025.52
2018-10-21T01:24:43.999Z,1025.54
2018-10-21T01:25:43.990Z,1025.55
2018-10-21T01:26:43.976Z,1025.52
2018-10-21T01:27:43.966Z,1025.58
2018-10-21T01:28:43.962Z,1025.55
2018-10-21T01:29:43.957Z,1025.55
2018-10-21T01:30:43.943Z,1025.54
2018-10-21T01:31:43.934Z,1025.56
2018-10-21T01:32:43.921Z,1025.59
2018-10-21T01:33:43.910Z,1025.60
2018-10-21T01:34:43.902Z,1025.61
2018-10-21T01:35:43.893Z,1025.73
2018-10-21T01:36:43.965Z,1025.64
2018-10-21T01:37:43.883Z,1025.64
2018-10-21T01:38:43.870Z,1025.68
2018-10-21T01:39:43.861Z,1025.63
2018-10-21T01:40:43.846Z,1025.58
2018-10-21T01:41:43.837Z,1025.64
2018-10-21T01:42:43.839Z,1025.61
2018-10-21T01:43:43.824Z,1025.60
2018-10-21T01:44:43.810Z,1025.64
2018-10-21T01:45:43.801Z,1025.62
2018-10-21T01:46:43.791Z,1025.64
2018-10-21T01:47:43.785Z,1025.64
2018-10-21T01:48:43.776Z,1025.61
2018-10-21T01:49:43.769Z,1025.60
2018-10-21T01:50:43.759Z,1025.64
2018-10-21T01:51:43.750Z,1025.61
2018-10-21T01:52:43.737Z,1025.61
2018-10-21T01:53:43.727Z,1025.58
2018-10-21T01:54:43.717Z,1025.56
2018-10-21T01:55:43.707Z,1025.63
2018-10-21T01:56:43.703Z,1025.59
2018-10-21T01:57:43.694Z,1025.62
2018-10-21T01:58:43.680Z,1025.62
2018-10-21T01:59:43.671Z,1025.58
2018-10-21T02:00:43.688Z,1025.57
2018-10-21T02:01:43.657Z,1025.56
2018-10-21T02:02:43.648Z,1025.58
2018-10-21T02:03:43.638Z,1025.56
2018-10-21T02:04:43.629Z,1025.52
2018-10-21T02:05:43.615Z,1025.54
2018-10-21T02:06:43.607Z,1025.53
2018-10-21T02:07:43.596Z,1025.59
2018-10-21T02:08:43.592Z,1025.53
2018-10-21T02:09:43.582Z,1025.58
2018-10-21T02:10:43.576Z,1025.59
2018-10-21T02:11:43.566Z,1025.55
2018-10-21T02:12:43.549Z,1025.61
2018-10-21T02:13:43.541Z,1025.62
2018-10-21T02:14:43.535Z,1025.65
2018-10-21T02:15:43.525Z,1025.62
2018-10-21T02:16:43.512Z,1025.60
2018-10-21T02:17:43.503Z,1025.59
2018-10-21T02:18:43.495Z,1025.64
2018-10-21T02:19:43.484Z,1025.65
2018-10-21T02:20:43.480Z,1025.56
2018-10-21T02:21:43.470Z,1025.62
2018-10-21T02:22:43.461Z,1025.59
2018-10-21T02:23:43.451Z,1025.57
2018-10-21T02:24:43.437Z,1025.59
2018-10-21T02:25:43.429Z,1025.61
2018-10-21T02:26:43.465Z,1025.57
2018-10-21T02:27:43.408Z,1025.62
2018-10-21T02:28:43.406Z,1025.56
2018-10-21T02:29:43.395Z,1025.57
2018-10-21T02:30:43.381Z,1025.48
2018-10-21T02:31:43.371Z,1025.51
2018-10-21T02:32:43.367Z,1025.48
2018-10-21T02:33:43.446Z,1025.45
2018-10-21T02:34:43.349Z,1025.40
2018-10-21T02:35:43.341Z,1025.40
2018-10-21T02:36:43.324Z,1025.39
2018-10-21T02:37:43.315Z,1025.39
2018-10-21T02:38:43.308Z,1025.34
2018-10-21T02:39:43.300Z,1025.33
2018-10-21T02:40:43.292Z,1025.34
2018-10-21T02:41:43.282Z,1025.33
2018-10-21T02:42:43.273Z,1025.34
2018-10-21T02:43:43.263Z,1025.38
2018-10-21T02:44:43.249Z,1025.34
2018-10-21T02:45:43.240Z,1025.37
2018-10-21T02:46:43.236Z,1025.34
2018-10-21T02:47:43.225Z,1025.35
2018-10-21T02:48:43.211Z,1025.39
2018-10-21T02:49:43.201Z,1025.37
2018-10-21T02:50:43.192Z,1025.39
2018-10-21T02:51:43.187Z,1025.41
2018-10-21T02:52:43.177Z,1025.41
2018-10-21T02:53:43.170Z,1025.36
2018-10-21T02:54:43.159Z,1025.40
2018-10-21T02:55:43.149Z,1025.34
2018-10-21T02:56:43.144Z,1025.29
2018-10-21T02:57:43.134Z,1025.30
2018-10-21T02:58:43.117Z,1025.28
2018-10-21T02:59:43.107Z,1025.23
2018-10-21T03:00:43.102Z,1025.22
2018-10-21T03:01:43.093Z,1025.20
2018-10-21T03:02:43.079Z,1025.22
2018-10-21T03:03:43.070Z,1025.20
2018-10-21T03:04:43.065Z,1025.18
2018-10-21T03:05:43.055Z,1025.22
2018-10-21T03:06:43.046Z,1025.22
2018-10-21T03:07:43.036Z,1025.13
2018-10-21T03:08:43.022Z,1025.17
2018-10-21T03:09:43.012Z,1025.13
2018-10-21T03:10:43.006Z,1025.12
2018-10-21T03:11:42.997Z,1025.12
2018-10-21T03:12:42.989Z,1025.07
2018-10-21T03:13:42.978Z,1025.06
2018-10-21T03:14:42.970Z,1025.08
2018-10-21T03:15:42.965Z,1025.06
2018-10-21T03:16:42.947Z,1025.08
2018-10-21T03:17:42.936Z,1025.02
2018-10-21T03:18:42.935Z,1025.03
2018-10-21T03:19:42.923Z,1025.01
2018-10-21T03:20:42.908Z,1025.06
2018-10-21T03:21:42.900Z,1025.03
2018-10-21T03:22:42.894Z,1025.03
2018-10-21T03:23:42.879Z,1025.00
2018-10-21T03:24:42.875Z,1025.02
2018-10-21T03:25:42.865Z,1025.00
2018-10-21T03:26:42.857Z,1025.00
2018-10-21T03:27:42.845Z,1025.03
2018-10-21T03:28:42.835Z,1025.06
2018-10-21T03:29:42.823Z,1025.03
2018-10-21T03:30:42.816Z,1025.04
2018-10-21T03:31:42.806Z,1025.04
2018-10-21T03:32:42.850Z,1025.11
2018-10-21T03:33:42.969Z,1025.13
2018-10-21T03:34:42.781Z,1025.15
2018-10-21T03:35:42.765Z,1025.11
2018-10-21T03:36:42.762Z,1025.11
2018-10-21T03:37:42.752Z,1025.11
2018-10-21T03:38:42.745Z,1025.10
2018-10-21T03:39:42.732Z,1025.08
2018-10-21T03:40:42.718Z,1025.08
2018-10-21T03:41:42.709Z,1025.04
2018-10-21T03:42:42.700Z,1025.09
2018-10-21T03:43:42.690Z,1025.08
2018-10-21T03:44:42.685Z,1025.06
2018-10-21T03:45:42.682Z,1025.10
2018-10-21T03:46:42.666Z,1025.07
2018-10-21T03:47:42.655Z,1025.04
2018-10-21T03:48:42.645Z,1024.98
2018-10-21T03:49:42.633Z,1024.99
2018-10-21T03:50:42.628Z,1025.00
2018-10-21T03:51:42.618Z,1024.99
2018-10-21T03:52:42.603Z,1025.03
2018-10-21T03:53:42.594Z,1025.04
2018-10-21T03:54:42.584Z,1025.00
2018-10-21T03:55:42.575Z,1024.99
2018-10-21T03:56:42.568Z,1024.99
2018-10-21T03:57:42.562Z,1024.98
2018-10-21T03:58:42.552Z,1024.98
2018-10-21T03:59:42.542Z,1024.95
2018-10-21T04:00:42.526Z,1025.02
2018-10-21T04:01:42.517Z,1025.00
2018-10-21T04:02:42.507Z,1024.98
2018-10-21T04:03:42.497Z,1024.95
2018-10-21T04:04:42.492Z,1024.96
2018-10-21T04:05:42.483Z,1024.95
2018-10-21T04:06:42.471Z,1024.97
2018-10-21T04:07:42.461Z,1024.98
2018-10-21T04:08:42.454Z,1024.99
2018-10-21T04:09:42.445Z,1024.95
2018-10-21T04:10:42.436Z,1024.95
2018-10-21T04:11:42.425Z,1024.92
2018-10-21T04:12:42.410Z,1024.92
2018-10-21T04:13:42.402Z,1024.89
2018-10-21T04:14:42.393Z,1024.89
2018-10-21T04:15:42.385Z,1024.93
2018-10-21T04:16:42.377Z,1024.92
2018-10-21T04:17:42.368Z,1024.94
2018-10-21T04:18:42.358Z,1024.91
2018-10-21T04:19:42.346Z,1024.89
2018-10-21T04:20:42.335Z,1024.89
2018-10-21T04:21:42.324Z,1024.87
2018-10-21T04:22:42.319Z,1024.87
2018-10-21T04:23:42.308Z,1024.89
2018-10-21T04:24:42.294Z,1024.91
2018-10-21T04:25:42.286Z,1024.89
2018-10-21T04:26:42.277Z,1024.89
2018-10-21T04:27:42.268Z,1024.86
2018-10-21T04:28:42.262Z,1024.89
2018-10-21T04:29:42.252Z,1024.88
2018-10-21T04:30:42.243Z,1024.85
2018-10-21T04:31:42.232Z,1024.80
2018-10-21T04:32:42.219Z,1024.86
2018-10-21T04:33:42.209Z,1024.84
2018-10-21T04:34:42.200Z,1024.81
2018-10-21T04:35:42.188Z,1024.86
2018-10-21T04:36:42.183Z,1024.85
2018-10-21T04:37:42.174Z,1024.89
2018-10-21T04:38:42.161Z,1024.90
2018-10-21T04:39:42.150Z,1024.85
2018-10-21T04:40:42.144Z,1024.84
2018-10-21T04:41:42.136Z,1024.91
2018-10-21T04:42:42.127Z,1024.83
2018-10-21T04:43:42.117Z,1024.85
2018-10-21T04:44:42.102Z,1024.88
2018-10-21T04:45:42.093Z,1024.85
2018-10-21T04:46:42.102Z,1024.78
2018-10-21T04:47:42.076Z,1024.82
2018-10-21T04:48:42.067Z,1024.82
2018-10-21T04:49:42.058Z,1024.74
2018-10-21T04:50:42.049Z,1024.76
2018-10-21T04:51:42.038Z,1024.76
2018-10-21T04:52:42.025Z,1024.74
2018-10-21T04:53:42.015Z,1024.77
2018-10-21T04:54:42.010Z,1024.70
2018-10-21T04:55:41.998Z,1024.72
2018-10-21T04:56:41.986Z,1024.78
2018-10-21T04:57:41.976Z,1024.70
2018-10-21T04:58:41.967Z,1024.69
2018-10-21T04:59:41.956Z,1024.67
2018-10-21T05:00:42.030Z,1024.65
2018-10-21T05:01:41.942Z,1024.64
2018-10-21T05:02:41.934Z,1024.68
2018-10-21T05:03:41.921Z,1024.72
2018-10-21T05:04:41.907Z,1024.65
2018-10-21T05:05:41.898Z,1024.68
2018-10-21T05:06:41.889Z,1024.68
2018-10-21T05:07:42.021Z,1024.70
2018-10-21T05:08:41.874Z,1024.66
2018-10-21T05:09:41.864Z,1024.67
2018-10-21T05:10:41.849Z,1024.67
2018-10-21T05:11:41.839Z,1024.67
2018-10-21T05:12:41.835Z,1024.67
2018-10-21T05:13:41.825Z,1024.63
2018-10-21T05:14:41.814Z,1024.68
2018-10-21T05:15:41.804Z,1024.66
2018-10-21T05:16:41.895Z,1024.73
2018-10-21T05:17:41.781Z,1024.67
2018-10-21T05:18:41.770Z,1024.69
2018-10-21T05:19:41.761Z,1024.68
2018-10-21T05:20:41.755Z,1024.68
2018-10-21T05:21:41.745Z,1024.63
2018-10-21T05:22:41.737Z,1024.65
2018-10-21T05:23:41.727Z,1024.64
2018-10-21T05:24:41.712Z,1024.60
2018-10-21T05:25:41.706Z,1024.59
2018-10-21T05:26:41.698Z,1024.59
2018-10-21T05:27:41.688Z,1024.60
2018-10-21T05:28:41.672Z,1024.60
2018-10-21T05:29:41.663Z,1024.62
2018-10-21T05:30:41.657Z,1024.63
2018-10-21T05:31:41.643Z,1024.68
2018-10-21T05:32:41.640Z,1024.72
2018-10-21T05:33:41.631Z,1024.72
2018-10-21T05:34:41.618Z,1024.63
2018-10-21T05:35:41.607Z,1024.63
2018-10-21T05:36:41.593Z,1024.61
2018-10-21T05:37:41.612Z,1024.67
2018-10-21T05:38:41.574Z,1024.60
2018-10-21T05:39:41.564Z,1024.64
2018-10-21T05:40:41.648Z,1024.65
2018-10-21T05:41:41.549Z,1024.65
2018-10-21T05:42:41.536Z,1024.70
2018-10-21T05:43:41.524Z,1024.68
2018-10-21T05:44:41.520Z,1024.66
2018-10-21T05:45:41.510Z,1024.75
2018-10-21T05:46:41.521Z,1024.73
2018-10-21T05:47:41.489Z,1024.69
2018-10-21T05:48:41.475Z,1024.78
2018-10-21T05:49:41.465Z,1024.77
2018-10-21T05:50:41.455Z,1024.74
2018-10-21T05:51:41.444Z,1024.77
2018-10-21T05:52:41.439Z,1024.78
2018-10-21T05:53:41.431Z,1024.82
2018-10-21T05:54:41.421Z,1024.80
2018-10-21T05:55:41.410Z,1024.83
2018-10-21T05:56:41.395Z,1024.85
2018-10-21T05:57:41.412Z,1024.82
2018-10-21T05:58:41.382Z,1024.84
2018-10-21T05:59:41.369Z,1024.87
2018-10-21T06:00:41.360Z,1024.83
2018-10-21T06:01:41.347Z,1024.86
2018-10-21T06:02:41.387Z,1024.85
2018-10-21T06:03:41.327Z,1024.81
2018-10-21T06:04:41.320Z,1024.79
2018-10-21T06:05:41.310Z,1024.78
2018-10-21T06:06:41.302Z,1024.80
2018-10-21T06:07:41.292Z,1024.80
2018-10-21T06:08:41.277Z,1024.74
2018-10-21T06:09:41.267Z,1024.75
2018-10-21T06:10:41.258Z,1024.78
2018-10-21T06:11:41.247Z,1024.75
2018-10-21T06:12:41.251Z,1024.75
2018-10-21T06:13:41.231Z,1024.73
2018-10-21T06:14:41.218Z,1024.73
2018-10-21T06:15:41.224Z,1024.69
2018-10-21T06:16:41.202Z,1024.75
2018-10-21T06:17:41.194Z,1024.76
2018-10-21T06:18:41.184Z,1024.71
2018-10-21T06:19:41.172Z,1024.73
2018-10-21T06:20:41.159Z,1024.70
2018-10-21T06:21:41.148Z,1024.70
2018-10-21T06:22:41.140Z,1024.75
2018-10-21T06:23:41.137Z,1024.74
2018-10-21T06:24:41.124Z,1024.78
2018-10-21T06:25:41.114Z,1024.79
2018-10-21T06:26:41.105Z,1024.85
2018-10-21T06:27:41.162Z,1024.85
2018-10-21T06:28:41.079Z,1024.87
2018-10-21T06:29:41.070Z,1024.94
2018-10-21T06:30:41.069Z,1024.93
2018-10-21T06:31:41.055Z,1025.01
2018-10-21T06:32:41.043Z,1025.04
2018-10-21T06:33:41.148Z,1025.00
2018-10-21T06:34:41.022Z,1025.05
2018-10-21T06:35:41.011Z,1025.07
2018-10-21T06:36:41.038Z,1024.97
2018-10-21T06:37:40.998Z,1025.04
2018-10-21T06:38:40.988Z,1025.01
2018-10-21T06:39:40.978Z,1025.00
2018-10-21T06:40:40.964Z,1024.96
2018-10-21T06:41:40.953Z,1025.06
2018-10-21T06:42:40.950Z,1025.01
2018-10-21T06:43:40.934Z,1024.98
2018-10-21T06:44:40.929Z,1025.02
2018-10-21T06:45:41.017Z,1025.00
2018-10-21T06:46:40.910Z,1025.04
2018-10-21T06:47:40.897Z,1025.06
2018-10-21T06:48:40.894Z,1025.04
2018-10-21T06:49:40.883Z,1025.04
2018-10-21T06:50:40.876Z,1025.02
2018-10-21T06:51:40.865Z,1025.00
2018-10-21T06:52:40.851Z,1025.07
2018-10-21T06:53:40.843Z,1025.13
2018-10-21T06:54:40.834Z,1025.17
2018-10-21T06:55:40.823Z,1025.31
2018-10-21T06:56:40.901Z,1025.46
2018-10-21T06:57:40.866Z,1025.51
2018-10-21T06:58:40.800Z,1025.55
2018-10-21T06:59:40.792Z,1025.58
2018-10-21T07:00:40.778Z,1025.55
2018-10-21T07:01:40.770Z,1025.63
2018-10-21T07:02:40.767Z,1025.61
2018-10-21T07:03:40.759Z,1025.63
2018-10-21T07:04:40.812Z,1025.67
2018-10-21T07:05:40.739Z,1025.69
2018-10-21T07:06:40.732Z,1025.72
2018-10-21T07:07:40.725Z,1025.80
2018-10-21T07:08:40.722Z,1025.77
2018-10-21T07:09:40.717Z,1025.83
2018-10-21T07:10:40.710Z,1025.88
2018-10-21T07:11:40.704Z,1025.93
2018-10-21T07:12:40.694Z,1026.01
2018-10-21T07:13:40.688Z,1026.00
2018-10-21T07:14:40.687Z,1026.00
2018-10-21T07:15:40.738Z,1026.05
2018-10-21T07:16:40.845Z,1026.07
2018-10-21T07:17:40.675Z,1026.12
2018-10-21T07:18:40.665Z,1026.10
2018-10-21T07:19:40.662Z,1026.17
2018-10-21T07:20:40.663Z,1026.20
2018-10-21T07:21:40.660Z,1026.19
2018-10-21T07:22:40.656Z,1026.22
2018-10-21T07:23:40.653Z,1026.23
2018-10-21T07:24:40.645Z,1026.30
2018-10-21T07:25:40.643Z,1026.28
2018-10-21T07:26:40.643Z,1026.34
2018-10-21T07:27:40.639Z,1026.33
2018-10-21T07:28:40.644Z,1026.35
2018-10-21T07:29:40.642Z,1026.36
2018-10-21T07:30:40.640Z,1026.37
2018-10-21T07:31:40.639Z,1026.40
2018-10-21T07:32:40.633Z,1026.43
2018-10-21T07:33:40.632Z,1026.47
2018-10-21T07:34:40.638Z,1026.51
2018-10-21T07:35:40.636Z,1026.47
2018-10-21T07:36:40.632Z,1026.50
2018-10-21T07:37:40.631Z,1026.51
2018-10-21T07:38:40.633Z,1025.91
2018-10-21T07:39:40.632Z,1025.85
2018-10-21T07:40:40.637Z,1025.87
2018-10-21T07:41:40.637Z,1025.87
2018-10-21T07:42:40.638Z,1025.90
2018-10-21T07:43:40.639Z,1025.91
2018-10-21T07:44:40.636Z,1025.94
2018-10-21T07:45:40.640Z,1025.94
2018-10-21T07:46:40.712Z,1025.95
2018-10-21T07:47:40.640Z,1025.93
2018-10-21T07:48:40.648Z,1025.91
2018-10-21T07:49:40.648Z,1025.94
2018-10-21T07:50:40.645Z,1025.95
2018-10-21T07:51:40.648Z,1025.95
2018-10-21T07:52:40.653Z,1025.97
2018-10-21T07:53:40.655Z,1025.93
2018-10-21T07:54:40.657Z,1025.98
2018-10-21T07:55:40.709Z,1025.98
2018-10-21T07:56:40.655Z,1025.95
2018-10-21T07:57:40.657Z,1025.93
2018-10-21T07:58:40.659Z,1025.97
2018-10-21T07:59:40.660Z,1025.97
2018-10-21T08:00:40.668Z,1025.95
2018-10-21T08:01:40.671Z,1025.97
2018-10-21T08:02:40.677Z,1026.01
2018-10-21T08:03:40.676Z,1026.05
2018-10-21T08:04:40.730Z,1026.00
2018-10-21T08:05:40.678Z,1026.00
2018-10-21T08:06:40.685Z,1025.96
2018-10-21T08:07:40.686Z,1025.93
2018-10-21T08:08:40.788Z,1025.99
2018-10-21T08:09:40.688Z,1026.00
2018-10-21T08:10:40.691Z,1026.02
2018-10-21T08:11:40.694Z,1025.97
2018-10-21T08:12:40.702Z,1026.03
2018-10-21T08:13:40.706Z,1026.01
2018-10-21T08:14:40.769Z,1026.01
2018-10-21T08:15:40.717Z,1026.04
2018-10-21T08:16:40.710Z,1026.05
2018-10-21T08:17:40.714Z,1026.08
2018-10-21T08:18:40.719Z,1026.07
2018-10-21T08:19:40.720Z,1026.03
2018-10-21T08:20:40.731Z,1026.07
2018-10-21T08:21:40.733Z,1026.06
2018-10-21T08:22:40.733Z,1026.06
2018-10-21T08:23:40.737Z,1026.09
2018-10-21T08:24:40.746Z,1026.13
2018-10-21T08:25:40.755Z,1026.12
2018-10-21T08:26:40.754Z,1026.16
2018-10-21T08:27:40.759Z,1026.14
2018-10-21T08:28:40.758Z,1026.19
2018-10-21T08:29:40.764Z,1026.15
2018-10-21T08:30:40.768Z,1026.14
2018-10-21T08:31:40.772Z,1026.19
2018-10-21T08:32:40.782Z,1026.20
2018-10-21T08:33:40.787Z,1026.20
2018-10-21T08:34:40.791Z,1026.16
2018-10-21T08:35:40.794Z,1026.16
2018-10-21T08:36:40.796Z,1026.19
2018-10-21T08:37:40.800Z,1026.17
2018-10-21T08:38:40.809Z,1026.17
2018-10-21T08:39:40.813Z,1026.18
2018-10-21T08:40:40.816Z,1026.19
2018-10-21T08:41:40.824Z,1026.25
2018-10-21T08:42:40.826Z,1026.18
2018-10-21T08:43:40.830Z,1026.24
2018-10-21T08:44:40.840Z,1026.20
2018-10-21T08:45:40.845Z,1026.27
2018-10-21T08:46:40.938Z,1026.17
2018-10-21T08:47:40.883Z,1026.15
2018-10-21T08:48:40.855Z,1026.26
2018-10-21T08:49:40.871Z,1026.16
2018-10-21T08:50:40.866Z,1026.19
2018-10-21T08:51:40.868Z,1026.17
2018-10-21T08:52:40.878Z,1026.18
2018-10-21T08:53:40.884Z,1026.18
2018-10-21T08:54:40.884Z,1026.16
2018-10-21T08:55:40.900Z,1026.21
2018-10-21T08:56:40.899Z,1026.22
2018-10-21T08:57:40.905Z,1026.15
2018-10-21T08:58:40.911Z,1026.17
2018-10-21T08:59:40.916Z,1026.18
2018-10-21T09:00:40.916Z,1026.21
2018-10-21T09:01:40.923Z,1026.18
2018-10-21T09:02:40.929Z,1026.17
2018-10-21T09:03:40.932Z,1026.16
2018-10-21T09:04:40.942Z,1026.16
2018-10-21T09:05:40.953Z,1026.15
2018-10-21T09:06:40.964Z,1026.20
2018-10-21T09:07:40.960Z,1026.23
2018-10-21T09:08:40.961Z,1026.17
2018-10-21T09:09:40.967Z,1026.19
2018-10-21T09:10:41.197Z,1026.19
2018-10-21T09:11:40.984Z,1026.21
2018-10-21T09:12:40.986Z,1026.25
2018-10-21T09:13:40.996Z,1026.28
2018-10-21T09:14:40.999Z,1026.31
2018-10-21T09:15:41.005Z,1026.26
2018-10-21T09:16:41.096Z,1026.25
2018-10-21T09:17:41.024Z,1026.30
2018-10-21T09:18:41.036Z,1026.35
2018-10-21T09:19:41.038Z,1026.41
2018-10-21T09:20:41.039Z,1026.44
2018-10-21T09:21:41.046Z,1026.47
2018-10-21T09:22:41.054Z,1026.49
2018-10-21T09:23:41.135Z,1026.57
2018-10-21T09:24:41.074Z,1026.64
2018-10-21T09:25:41.080Z,1026.70
2018-10-21T09:26:41.090Z,1026.67
2018-10-21T09:27:41.091Z,1026.67
2018-10-21T09:28:41.103Z,1026.60
2018-10-21T09:29:41.115Z,1026.51
2018-10-21T09:30:41.124Z,1026.45
2018-10-21T09:31:41.129Z,1026.28
2018-10-21T09:32:41.133Z,1026.25
2018-10-21T09:33:41.141Z,1026.24
2018-10-21T09:34:41.151Z,1026.23
2018-10-21T09:35:41.155Z,1026.22
2018-10-21T09:36:41.169Z,1026.22
2018-10-21T09:37:41.177Z,1026.18
2018-10-21T09:38:41.184Z,1026.15
2018-10-21T09:39:41.193Z,1026.11
2018-10-21T09:40:41.196Z,1026.13
2018-10-21T09:41:41.204Z,1026.14
2018-10-21T09:42:41.218Z,1026.19
2018-10-21T09:43:41.225Z,1026.10
2018-10-21T09:44:41.228Z,1026.13
2018-10-21T09:45:41.238Z,1026.10
2018-10-21T09:46:41.245Z,1026.08
2018-10-21T09:47:41.253Z,1026.02
2018-10-21T09:48:41.266Z,1026.07
2018-10-21T09:49:41.285Z,1026.03
2018-10-21T09:50:41.283Z,1026.05
2018-10-21T09:51:41.289Z,1026.03
2018-10-21T09:52:41.292Z,1026.06
2018-10-21T09:53:41.300Z,1026.05
2018-10-21T09:54:41.307Z,1026.02
2018-10-21T09:55:41.315Z,1026.01
2018-10-21T09:56:41.332Z,1026.06
2018-10-21T09:57:41.337Z,1026.05
2018-10-21T09:58:41.423Z,1026.05
2018-10-21T09:59:41.346Z,1026.04
2018-10-21T10:00:41.358Z,1026.04
2018-10-21T10:01:41.366Z,1026.06
2018-10-21T10:02:41.376Z,1026.07
2018-10-21T10:03:41.427Z,1026.06
2018-10-21T10:04:41.388Z,1026.00
2018-10-21T10:05:41.396Z,1026.03
2018-10-21T10:06:41.421Z,1026.03
2018-10-21T10:07:41.411Z,1025.98
2018-10-21T10:08:41.423Z,1025.95
2018-10-21T10:09:41.432Z,1025.94
2018-10-21T10:10:41.440Z,1025.94
2018-10-21T10:11:41.446Z,1025.96
2018-10-21T10:12:41.451Z,1025.91
2018-10-21T10:13:41.460Z,1025.95
2018-10-21T10:14:41.471Z,1025.93
2018-10-21T10:15:41.479Z,1025.87
2018-10-21T10:16:41.481Z,1025.86
2018-10-21T10:17:41.540Z,1025.87
2018-10-21T10:18:41.500Z,1025.84
2018-10-21T10:19:41.507Z,1025.86
2018-10-21T10:20:41.518Z,1025.85
2018-10-21T10:21:41.527Z,1025.82
2018-10-21T10:22:41.533Z,1025.80
2018-10-21T10:23:41.544Z,1025.82
2018-10-21T10:24:41.545Z,1025.81
2018-10-21T10:25:41.552Z,1025.79
2018-10-21T10:26:41.561Z,1025.74
2018-10-21T10:27:41.567Z,1025.72
2018-10-21T10:28:41.581Z,1025.73
2018-10-21T10:29:41.589Z,1025.70
2018-10-21T10:30:41.591Z,1025.72
2018-10-21T10:31:41.598Z,1025.65
2018-10-21T10:32:41.612Z,1025.69
2018-10-21T10:33:41.619Z,1025.68
2018-10-21T10:34:41.626Z,1025.66
2018-10-21T10:35:41.634Z,1025.69
2018-10-21T10:36:41.636Z,1025.65
2018-10-21T10:37:41.644Z,1025.67
2018-10-21T10:38:41.652Z,1025.66
2018-10-21T10:39:41.659Z,1025.62
2018-10-21T10:40:41.673Z,1025.60
2018-10-21T10:41:41.754Z,1025.54
2018-10-21T10:42:41.690Z,1025.55
2018-10-21T10:43:41.703Z,1025.54
2018-10-21T10:44:41.699Z,1025.57
2018-10-21T10:45:41.707Z,1025.62
2018-10-21T10:46:41.720Z,1025.57
2018-10-21T10:47:41.733Z,1025.55
2018-10-21T10:48:41.732Z,1025.50
2018-10-21T10:49:41.740Z,1025.48
2018-10-21T10:50:41.748Z,1025.49
2018-10-21T10:51:41.768Z,1025.50
2018-10-21T10:52:41.771Z,1025.48
2018-10-21T10:53:41.777Z,1025.46
2018-10-21T10:54:41.785Z,1025.42
2018-10-21T10:55:41.792Z,1025.41
2018-10-21T10:56:41.794Z,1025.43
2018-10-21T10:57:41.803Z,1025.44
2018-10-21T10:58:41.812Z,1025.43
2018-10-21T10:59:41.869Z,1025.38
2018-10-21T11:00:41.832Z,1025.34
2018-10-21T11:01:41.840Z,1025.38
2018-10-21T11:02:41.844Z,1025.33
2018-10-21T11:03:41.852Z,1025.31
2018-10-21T11:04:41.863Z,1025.27
2018-10-21T11:05:41.871Z,1025.28
2018-10-21T11:06:41.878Z,1025.27
2018-10-21T11:07:41.884Z,1025.21
2018-10-21T11:08:41.887Z,1025.20
2018-10-21T11:09:41.896Z,1025.17
2018-10-21T11:10:41.902Z,1025.19
2018-10-21T11:11:41.907Z,1025.08
2018-10-21T11:12:41.919Z,1025.00
2018-10-21T11:13:41.925Z,1024.89
2018-10-21T11:14:41.992Z,1024.92
2018-10-21T11:15:41.938Z,1024.91
2018-10-21T11:16:41.941Z,1024.85
2018-10-21T11:17:41.944Z,1024.84
2018-10-21T11:18:41.955Z,1024.89
2018-10-21T11:19:41.961Z,1024.78
2018-10-21T11:20:41.960Z,1024.83
2018-10-21T11:21:41.987Z,1024.76
2018-10-21T11:22:42.028Z,1024.72
2018-10-21T11:23:41.971Z,1024.74
2018-10-21T11:24:41.979Z,1024.71
2018-10-21T11:25:41.987Z,1024.65
2018-10-21T11:26:41.988Z,1024.63
2018-10-21T11:27:41.990Z,1024.63
2018-10-21T11:28:41.991Z,1024.61
2018-10-21T11:29:41.991Z,1024.60
2018-10-21T11:30:41.994Z,1024.57
2018-10-21T11:31:41.994Z,1024.62
2018-10-21T11:32:42.000Z,1024.60
2018-10-21T11:33:42.002Z,1024.57
2018-10-21T11:34:42.002Z,1024.54
2018-10-21T11:35:42.000Z,1024.48
2018-10-21T11:36:42.087Z,1024.51
2018-10-21T11:37:42.133Z,1024.50
2018-10-21T11:38:42.014Z,1024.47
2018-10-21T11:39:42.010Z,1024.47
2018-10-21T11:40:42.010Z,1024.43
2018-10-21T11:41:42.006Z,1024.35
2018-10-21T11:42:42.008Z,1024.35
2018-10-21T11:43:42.006Z,1024.40
2018-10-21T11:44:42.014Z,1024.36
2018-10-21T11:45:42.062Z,1024.35
2018-10-21T11:46:42.015Z,1024.30
2018-10-21T11:47:42.012Z,1024.32
2018-10-21T11:48:42.009Z,1024.27
2018-10-21T11:49:42.008Z,1024.24
2018-10-21T11:50:42.012Z,1024.23
2018-10-21T11:51:42.011Z,1024.26
2018-10-21T11:52:42.175Z,1024.22
2018-10-21T11:53:42.007Z,1024.20
2018-10-21T11:54:42.008Z,1024.23
2018-10-21T11:55:42.005Z,1024.25
2018-10-21T11:56:42.011Z,1024.19
2018-10-21T11:57:42.010Z,1024.10
2018-10-21T11:58:42.011Z,1024.11
2018-10-21T11:59:42.016Z,1024.16
2018-10-21T12:00:42.002Z,1024.11
2018-10-21T12:01:42.002Z,1024.05
2018-10-21T12:02:41.999Z,1024.06
2018-10-21T12:03:41.997Z,1024.06
2018-10-21T12:04:42.003Z,1024.03
2018-10-21T12:05:42.000Z,1024.00